Terminal Aerodrome Forecast
Issued by NWS

Home | Current Version | Previous Version | Text Only | Print | Product List | Glossary On
Versions: 1 2 3 4 5 6 7 8 9 10 11 12 13 14 15 16 17 18
000
FTUS43 KILX 031736
TAFBMI
TAF
KBMI 031736Z 0318/0418 05008KT P6SM SCT025 BKN150
      TEMPO 0318/0321 BKN025
     FM032100 04008KT P6SM SCT035 BKN250
     FM040100 04005KT P6SM FEW045 BKN250
     FM040900 VRB03KT 4SM BR SCT250
     FM041500 VRB05KT P6SM FEW025 SCT250=

USA.gov is the U.S. government's official web portal to all federal, state and local government web resources and services.